createdAt,value
2023-01-29T00:02:14.996Z,15.88
2023-01-29T00:04:41.902Z,16.50
2023-01-29T00:07:08.794Z,14.90
2023-01-29T00:09:35.701Z,15.75
2023-01-29T00:12:02.593Z,15.32
2023-01-29T00:14:29.478Z,15.23
2023-01-29T00:16:56.332Z,16.15
2023-01-29T00:19:23.344Z,15.30
2023-01-29T00:21:50.232Z,15.07
2023-01-29T00:24:17.111Z,15.63
2023-01-29T00:26:44.064Z,16.80
2023-01-29T00:29:10.879Z,14.95
2023-01-29T00:31:37.977Z,15.50
2023-01-29T00:34:04.900Z,15.70
2023-01-29T00:36:31.670Z,15.27
2023-01-29T00:39:00.620Z,15.45
2023-01-29T00:41:48.563Z,15.23
2023-01-29T00:44:34.565Z,15.98
2023-01-29T00:47:01.915Z,15.57
2023-01-29T00:49:30.296Z,15.95
2023-01-29T00:52:15.958Z,16.00
2023-01-29T00:54:42.786Z,15.23
2023-01-29T00:57:09.661Z,16.63
2023-01-29T00:59:36.487Z,17.33
2023-01-29T01:02:21.809Z,15.05
2023-01-29T01:04:48.717Z,15.02
2023-01-29T01:07:15.673Z,15.73
2023-01-29T01:10:01.099Z,16.95
2023-01-29T01:12:28.507Z,15.75
2023-01-29T01:14:55.509Z,16.05
2023-01-29T01:17:22.456Z,14.70
2023-01-29T01:19:49.316Z,15.63
2023-01-29T01:22:53.867Z,15.25
2023-01-29T01:25:21.818Z,15.13
2023-01-29T01:27:51.855Z,15.13
2023-01-29T01:30:19.129Z,16.55
2023-01-29T01:32:46.074Z,15.75
2023-01-29T01:35:14.893Z,15.55
2023-01-29T01:37:42.349Z,17.23
2023-01-29T01:40:18.209Z,16.88
2023-01-29T01:42:48.652Z,15.43
2023-01-29T01:45:44.063Z,15.63
2023-01-29T01:48:17.252Z,16.85
2023-01-29T01:50:54.306Z,16.35
2023-01-29T01:53:28.531Z,17.20
2023-01-29T01:56:03.485Z,16.83
2023-01-29T01:58:54.275Z,15.68
2023-01-29T02:01:29.287Z,15.85
2023-01-29T02:04:23.187Z,16.95
2023-01-29T02:07:11.243Z,15.68
2023-01-29T02:09:53.205Z,14.85
2023-01-29T02:12:21.112Z,16.90
2023-01-29T02:14:48.464Z,16.27
2023-01-29T02:17:18.306Z,16.02
2023-01-29T02:20:08.257Z,17.27
2023-01-29T02:23:08.503Z,16.60
2023-01-29T02:26:17.229Z,16.25
2023-01-29T02:28:50.148Z,15.68
2023-01-29T02:31:31.938Z,15.55
2023-01-29T02:34:18.490Z,14.83
2023-01-29T02:36:58.512Z,16.15
2023-01-29T02:39:37.874Z,16.58
2023-01-29T02:42:27.361Z,16.08
2023-01-29T02:45:00.501Z,16.73
2023-01-29T02:47:52.722Z,15.75
2023-01-29T02:50:43.292Z,15.55
2023-01-29T02:53:16.356Z,16.40
2023-01-29T02:55:52.875Z,16.27
2023-01-29T02:58:33.150Z,17.10
2023-01-29T03:01:06.634Z,16.17
2023-01-29T03:03:42.438Z,17.40
2023-01-29T03:06:22.352Z,15.75
2023-01-29T03:09:01.596Z,16.40
2023-01-29T03:11:39.960Z,17.30
2023-01-29T03:14:13.413Z,16.50
2023-01-29T03:16:49.869Z,17.38
2023-01-29T03:19:28.931Z,17.10
2023-01-29T03:22:01.039Z,18.25
2023-01-29T03:25:04.679Z,17.40
2023-01-29T03:28:01.439Z,17.05
2023-01-29T03:30:49.558Z,17.52
2023-01-29T03:33:19.418Z,17.17
2023-01-29T03:36:08.903Z,17.35
2023-01-29T03:38:36.179Z,17.25
2023-01-29T03:41:12.885Z,18.05
2023-01-29T03:44:11.823Z,18.10
2023-01-29T03:46:45.488Z,16.02
2023-01-29T03:49:30.448Z,17.35
2023-01-29T03:52:22.077Z,16.73
2023-01-29T03:55:00.843Z,18.65
2023-01-29T03:57:54.313Z,16.95
2023-01-29T04:00:29.054Z,18.35
2023-01-29T04:03:20.621Z,16.50
2023-01-29T04:06:16.702Z,17.38
2023-01-29T04:09:38.410Z,17.30
2023-01-29T04:12:10.995Z,16.67
2023-01-29T04:14:38.822Z,16.92
2023-01-29T04:17:14.945Z,15.65
2023-01-29T04:19:41.896Z,17.90
2023-01-29T04:22:24.270Z,16.58
2023-01-29T04:24:51.619Z,18.13
2023-01-29T04:27:45.180Z,17.50
2023-01-29T04:30:39.430Z,16.65
2023-01-29T04:33:26.418Z,17.35
2023-01-29T04:36:16.459Z,15.68
2023-01-29T04:39:04.861Z,17.40
2023-01-29T04:41:39.585Z,17.55
2023-01-29T04:44:12.394Z,17.67
2023-01-29T04:46:52.529Z,17.15
2023-01-29T04:49:50.381Z,17.33
2023-01-29T04:52:26.436Z,16.77
2023-01-29T04:55:17.751Z,16.88
2023-01-29T04:57:59.930Z,15.82
2023-01-29T05:00:41.601Z,16.17
2023-01-29T05:03:12.125Z,16.00
2023-01-29T05:05:42.815Z,16.23
2023-01-29T05:08:13.310Z,16.40
2023-01-29T05:10:40.320Z,15.85
2023-01-29T05:13:11.837Z,17.15
2023-01-29T05:15:53.019Z,17.02
2023-01-29T05:18:20.178Z,16.45
2023-01-29T05:20:48.150Z,17.08
2023-01-29T05:23:20.143Z,17.77
2023-01-29T05:25:48.667Z,17.33
2023-01-29T05:28:18.402Z,17.50
2023-01-29T05:30:47.583Z,17.48
2023-01-29T05:33:17.208Z,17.55
2023-01-29T05:35:44.558Z,16.38
2023-01-29T05:38:11.683Z,15.50
2023-01-29T05:40:39.036Z,16.38
2023-01-29T05:43:11.914Z,16.48
2023-01-29T05:45:38.698Z,17.23
2023-01-29T05:48:05.768Z,16.83
2023-01-29T05:50:32.600Z,16.85
2023-01-29T05:53:00.704Z,16.27
2023-01-29T05:55:29.517Z,15.50
2023-01-29T05:57:56.487Z,16.70
2023-01-29T06:00:23.662Z,16.23
2023-01-29T06:02:50.652Z,16.30
2023-01-29T06:05:17.596Z,16.00
2023-01-29T06:07:45.569Z,16.33
2023-01-29T06:10:18.777Z,16.70
2023-01-29T06:12:45.900Z,15.25
2023-01-29T06:15:15.381Z,16.38
2023-01-29T06:17:42.953Z,15.93
2023-01-29T06:20:10.637Z,16.15
2023-01-29T06:22:37.584Z,15.65
2023-01-29T06:25:04.958Z,15.57
2023-01-29T06:27:31.793Z,15.35
2023-01-29T06:29:58.591Z,16.00
2023-01-29T06:32:25.567Z,16.38
2023-01-29T06:34:53.271Z,16.63
2023-01-29T06:37:20.141Z,15.07
2023-01-29T06:39:47.019Z,14.80
2023-01-29T06:42:14.937Z,15.52
2023-01-29T06:44:41.824Z,16.20
2023-01-29T06:47:08.645Z,15.85
2023-01-29T06:49:35.480Z,15.65
2023-01-29T06:52:02.293Z,16.52
2023-01-29T06:54:29.610Z,16.52
2023-01-29T06:56:56.459Z,15.80
2023-01-29T06:59:23.332Z,15.98
2023-01-29T07:01:50.194Z,15.60
2023-01-29T07:04:17.074Z,15.82
2023-01-29T07:06:43.988Z,16.52
2023-01-29T07:09:13.949Z,16.40
2023-01-29T07:11:40.981Z,16.52
2023-01-29T07:14:08.141Z,16.38
2023-01-29T07:16:34.970Z,15.38
2023-01-29T07:19:01.876Z,16.48
2023-01-29T07:21:29.402Z,17.77
2023-01-29T07:23:56.311Z,15.93
2023-01-29T07:26:23.166Z,16.65
2023-01-29T07:28:50.018Z,16.70
2023-01-29T07:31:17.193Z,17.23
2023-01-29T07:33:44.746Z,17.95
2023-01-29T07:36:13.279Z,18.15
2023-01-29T07:38:40.113Z,16.70
2023-01-29T07:41:07.323Z,16.92
2023-01-29T07:43:34.264Z,19.38
2023-01-29T07:46:04.922Z,19.10
2023-01-29T07:48:31.927Z,18.67
2023-01-29T07:50:59.305Z,18.50
2023-01-29T07:53:27.098Z,19.80
2023-01-29T07:55:54.632Z,18.85
2023-01-29T07:58:21.659Z,20.27
2023-01-29T08:00:48.780Z,20.73
2023-01-29T08:03:17.806Z,22.15
2023-01-29T08:05:45.250Z,20.00
2023-01-29T08:08:13.009Z,21.10
2023-01-29T08:10:41.357Z,21.58
2023-01-29T08:13:08.731Z,22.27
2023-01-29T08:15:38.048Z,21.70
2023-01-29T08:18:06.022Z,22.13
2023-01-29T08:20:35.569Z,21.65
2023-01-29T08:23:04.752Z,23.30
2023-01-29T08:25:32.536Z,24.00
2023-01-29T08:28:00.566Z,24.40
2023-01-29T08:30:29.872Z,24.55
2023-01-29T08:32:56.699Z,23.38
2023-01-29T08:35:23.891Z,22.58
2023-01-29T08:38:01.817Z,22.42
2023-01-29T08:40:31.740Z,24.45
2023-01-29T08:43:02.096Z,24.02
2023-01-29T08:45:30.415Z,24.33
2023-01-29T08:47:58.400Z,27.35
2023-01-29T08:50:25.462Z,25.27
2023-01-29T08:52:57.012Z,25.60
2023-01-29T08:55:23.870Z,23.92
2023-01-29T08:57:52.039Z,25.73
2023-01-29T09:00:19.322Z,24.33
2023-01-29T09:02:46.217Z,26.45
2023-01-29T09:05:13.060Z,25.60
2023-01-29T09:07:39.852Z,25.13
2023-01-29T09:10:07.269Z,26.15
2023-01-29T09:12:34.072Z,24.83
2023-01-29T09:15:00.900Z,27.05
2023-01-29T09:17:27.719Z,25.73
2023-01-29T09:19:54.719Z,26.75
2023-01-29T09:22:21.552Z,26.98
2023-01-29T09:24:48.351Z,25.48
2023-01-29T09:27:15.162Z,27.42
2023-01-29T09:29:41.969Z,27.95
2023-01-29T09:32:08.804Z,26.58
2023-01-29T09:34:35.868Z,26.10
2023-01-29T09:37:02.745Z,26.13
2023-01-29T09:39:29.706Z,24.33
2023-01-29T09:42:26.932Z,27.08
2023-01-29T09:45:01.143Z,26.08
2023-01-29T09:47:29.718Z,26.05
2023-01-29T09:50:08.045Z,25.70
2023-01-29T09:52:40.936Z,23.77
2023-01-29T09:55:23.768Z,25.00
2023-01-29T09:58:12.840Z,23.63
2023-01-29T10:01:24.367Z,23.80
2023-01-29T10:04:38.725Z,24.67
2023-01-29T10:07:42.988Z,21.95
2023-01-29T10:10:45.263Z,21.85
2023-01-29T11:16:20.330Z,20.08
2023-01-29T11:19:01.536Z,21.52
2023-01-29T11:21:29.506Z,19.92
2023-01-29T11:24:18.725Z,20.95
2023-01-29T11:26:48.465Z,19.83
2023-01-29T11:29:28.862Z,20.15
2023-01-29T11:31:59.989Z,20.17
2023-01-29T11:34:33.134Z,19.50
2023-01-29T11:37:05.342Z,19.48
2023-01-29T11:39:33.314Z,20.20
2023-01-29T11:42:04.201Z,19.35
2023-01-29T11:44:37.094Z,18.70
2023-01-29T11:47:28.906Z,18.70
2023-01-29T11:49:58.052Z,18.75
2023-01-29T11:52:37.643Z,18.80
2023-01-29T11:55:16.417Z,18.92
2023-01-29T11:57:46.720Z,19.75
2023-01-29T12:00:29.708Z,18.48
2023-01-29T12:03:06.673Z,18.05
2023-01-29T12:05:33.962Z,19.30
2023-01-29T12:08:02.414Z,19.25
2023-01-29T12:10:36.823Z,19.05
2023-01-29T12:13:10.026Z,18.00
2023-01-29T12:15:38.755Z,18.15
2023-01-29T12:18:35.718Z,19.05
2023-01-29T12:21:14.668Z,18.75
2023-01-29T12:23:57.684Z,20.52
2023-01-29T12:26:51.911Z,19.65
2023-01-29T12:29:57.195Z,19.70
2023-01-29T12:32:30.161Z,19.67
2023-01-29T12:35:07.555Z,20.90
2023-01-29T12:37:40.407Z,19.77
2023-01-29T12:40:16.026Z,20.15
2023-01-29T12:42:49.819Z,20.90
2023-01-29T12:45:20.072Z,19.90
2023-01-29T12:47:54.484Z,20.48
2023-01-29T12:50:27.706Z,20.65
2023-01-29T12:53:10.390Z,20.00
2023-01-29T12:58:29.272Z,20.65
2023-01-29T13:01:02.020Z,20.10
2023-01-29T13:03:34.614Z,20.67
2023-01-29T13:06:09.662Z,23.33
2023-01-29T13:08:45.695Z,22.73
2023-01-29T13:11:56.021Z,21.15
2023-01-29T13:14:45.905Z,21.85
2023-01-29T13:17:26.729Z,20.33
2023-01-29T13:19:57.432Z,23.30
2023-01-29T13:22:32.050Z,21.08
2023-01-29T13:25:04.994Z,25.38
2023-01-29T13:27:35.097Z,21.42
2023-01-29T13:30:02.416Z,20.58
2023-01-29T13:32:31.768Z,22.15
2023-01-29T13:35:02.860Z,22.55
2023-01-29T13:37:41.331Z,21.92
2023-01-29T13:40:19.087Z,20.52
2023-01-29T13:42:47.741Z,20.45
2023-01-29T13:45:45.159Z,21.58
2023-01-29T13:48:58.274Z,20.67
2023-01-29T13:51:31.230Z,20.65
2023-01-29T13:54:05.069Z,22.30
2023-01-29T13:56:34.945Z,22.13
2023-01-29T13:59:03.515Z,21.25
2023-01-29T14:01:48.900Z,21.85
2023-01-29T14:04:29.157Z,21.45
2023-01-29T14:06:57.624Z,22.67
2023-01-29T14:09:39.791Z,21.70
2023-01-29T14:12:21.868Z,22.58
2023-01-29T14:14:48.680Z,22.92
2023-01-29T14:17:17.413Z,21.80
2023-01-29T14:19:52.199Z,21.25
2023-01-29T14:22:28.125Z,22.33
2023-01-29T14:24:58.655Z,23.08
2023-01-29T14:27:25.814Z,24.13
2023-01-29T14:30:02.901Z,22.45
2023-01-29T14:32:30.319Z,22.45
2023-01-29T14:35:01.277Z,22.60
2023-01-29T14:37:38.260Z,23.92
2023-01-29T14:40:17.487Z,23.50
2023-01-29T14:43:04.277Z,24.30
2023-01-29T14:45:36.514Z,21.58
2023-01-29T14:48:35.294Z,23.02
2023-01-29T14:51:15.224Z,24.42
2023-01-29T14:53:49.153Z,22.90
2023-01-29T14:56:56.353Z,22.67
2023-01-29T14:59:32.662Z,23.90
2023-01-29T15:02:05.350Z,23.25
2023-01-29T15:04:47.665Z,23.77
2023-01-29T15:07:27.411Z,21.48
2023-01-29T15:10:22.271Z,23.17
2023-01-29T15:12:58.191Z,23.10
2023-01-29T15:15:32.003Z,22.42
2023-01-29T15:18:08.011Z,25.00
2023-01-29T15:20:40.106Z,23.50
2023-01-29T15:23:27.350Z,22.83
2023-01-29T15:26:01.709Z,21.35
2023-01-29T15:28:33.878Z,22.33
2023-01-29T15:31:04.426Z,23.42
2023-01-29T15:33:33.394Z,23.90
2023-01-29T15:36:08.588Z,23.45
2023-01-29T15:38:35.987Z,22.63
2023-01-29T15:41:18.471Z,24.55
2023-01-29T15:43:48.639Z,22.83
2023-01-29T15:46:27.287Z,22.70
2023-01-29T15:48:57.183Z,20.90
2023-01-29T15:51:28.352Z,22.88
2023-01-29T15:53:58.360Z,23.13
2023-01-29T15:56:37.011Z,23.08
2023-01-29T15:59:09.643Z,23.00
2023-01-29T16:01:36.807Z,25.20
2023-01-29T16:04:04.698Z,22.90
2023-01-29T16:06:37.865Z,24.45
2023-01-29T16:09:05.973Z,23.95
2023-01-29T16:11:34.597Z,24.02
2023-01-29T16:14:02.903Z,25.33
2023-01-29T16:16:30.144Z,23.75
2023-01-29T16:19:00.895Z,24.35
2023-01-29T16:21:36.273Z,24.25
2023-01-29T16:24:09.678Z,24.70
2023-01-29T16:26:39.649Z,24.10
2023-01-29T16:29:16.324Z,23.92
2023-01-29T16:31:46.196Z,24.00
2023-01-29T16:34:26.121Z,23.52
2023-01-29T16:36:54.714Z,23.27
2023-01-29T16:39:44.144Z,22.80
2023-01-29T16:42:12.306Z,22.90
2023-01-29T16:44:49.940Z,24.33
2023-01-29T16:47:37.532Z,25.20
2023-01-29T16:50:24.400Z,24.73
2023-01-29T16:53:01.582Z,24.48
2023-01-29T16:55:36.401Z,23.95
2023-01-29T16:58:24.548Z,23.67
2023-01-29T17:00:59.632Z,23.92
2023-01-29T17:03:28.743Z,24.75
2023-01-29T17:05:55.746Z,23.52
2023-01-29T17:08:31.491Z,23.58
2023-01-29T17:10:59.056Z,24.20
2023-01-29T17:13:41.680Z,24.35
2023-01-29T17:18:47.880Z,23.75
2023-01-29T17:21:14.776Z,24.75
2023-01-29T17:23:41.596Z,24.63
2023-01-29T17:26:12.388Z,24.30
2023-01-29T17:28:39.862Z,23.25
2023-01-29T17:31:07.955Z,24.52
2023-01-29T17:33:43.246Z,23.20
2023-01-29T17:36:14.970Z,23.33
2023-01-29T17:38:41.861Z,25.50
2023-01-29T17:41:12.753Z,24.10
2023-01-29T17:43:39.683Z,23.67
2023-01-29T17:46:06.655Z,23.85
2023-01-29T17:48:33.560Z,22.23
2023-01-29T17:51:04.543Z,23.50
2023-01-29T17:53:45.218Z,24.77
2023-01-29T17:56:21.554Z,24.00
2023-01-29T17:58:48.377Z,23.38
2023-01-29T18:01:15.192Z,24.15
2023-01-29T18:03:42.035Z,23.33
2023-01-29T18:06:10.811Z,23.88
2023-01-29T18:08:39.756Z,24.23
2023-01-29T18:11:07.427Z,24.90
2023-01-29T18:13:36.197Z,24.52
2023-01-29T18:16:03.410Z,25.48
2023-01-29T18:18:30.254Z,24.45
2023-01-29T18:20:57.055Z,26.33
2023-01-29T18:23:24.418Z,24.40
2023-01-29T18:25:52.700Z,24.77
2023-01-29T18:28:19.563Z,25.85
2023-01-29T18:30:47.556Z,26.35
2023-01-29T18:33:15.954Z,25.52
2023-01-29T18:35:48.294Z,26.23
2023-01-29T18:38:15.684Z,25.85
2023-01-29T18:40:42.871Z,25.98
2023-01-29T18:43:09.670Z,27.10
2023-01-29T18:45:36.506Z,26.17
2023-01-29T18:48:03.478Z,26.35
2023-01-29T18:50:30.257Z,27.00
2023-01-29T18:52:57.300Z,27.30
2023-01-29T18:55:24.288Z,26.70
2023-01-29T18:58:27.077Z,25.38
2023-01-29T19:00:42.193Z,26.38
2023-01-29T19:03:10.074Z,28.50
2023-01-29T19:05:36.837Z,26.92
2023-01-29T19:08:05.264Z,26.98
2023-01-29T19:10:32.197Z,25.80
2023-01-29T19:12:59.001Z,26.48
2023-01-29T19:15:25.839Z,24.42
2023-01-29T19:17:53.050Z,26.33
2023-01-29T19:20:28.132Z,25.77
2023-01-29T19:22:54.932Z,24.27
2023-01-29T19:25:21.932Z,24.05
2023-01-29T19:27:48.724Z,24.90
2023-01-29T19:30:15.816Z,23.60
2023-01-29T19:32:42.591Z,24.05
2023-01-29T19:35:09.408Z,25.25
2023-01-29T19:37:36.214Z,23.70
2023-01-29T19:40:10.725Z,24.40
2023-01-29T19:42:37.636Z,22.35
2023-01-29T19:45:05.595Z,24.75
2023-01-29T19:47:33.681Z,23.15
2023-01-29T19:50:00.506Z,23.80
2023-01-29T19:52:50.337Z,22.73
2023-01-29T19:55:20.053Z,23.10
2023-01-29T19:57:47.342Z,23.02
2023-01-29T20:00:17.366Z,22.75
2023-01-29T20:02:44.201Z,21.00
2023-01-29T20:05:16.849Z,21.77
2023-01-29T20:07:44.886Z,21.60
2023-01-29T20:10:17.370Z,21.75
2023-01-29T20:12:45.409Z,20.00
2023-01-29T20:15:14.001Z,20.52
2023-01-29T20:17:40.780Z,20.60
2023-01-29T20:20:08.622Z,19.45
2023-01-29T20:22:35.541Z,19.60
2023-01-29T20:25:02.319Z,19.65
2023-01-29T20:27:29.165Z,19.88
2023-01-29T20:29:55.986Z,20.40
2023-01-29T20:32:22.781Z,20.02
2023-01-29T20:34:52.141Z,19.63
2023-01-29T20:37:19.640Z,19.02
2023-01-29T20:39:46.706Z,19.73
2023-01-29T20:42:13.734Z,18.45
2023-01-29T20:44:40.756Z,18.48
2023-01-29T20:47:08.466Z,18.52
2023-01-29T20:49:35.290Z,18.65
2023-01-29T20:52:02.181Z,18.77
2023-01-29T20:54:30.034Z,18.95
2023-01-29T20:56:57.162Z,18.65
2023-01-29T20:59:24.112Z,20.17
2023-01-29T21:01:51.002Z,17.52
2023-01-29T21:04:17.876Z,19.15
2023-01-29T21:06:44.670Z,18.15
2023-01-29T21:09:11.455Z,18.45
2023-01-29T21:11:38.243Z,19.10
2023-01-29T21:14:14.474Z,17.58
2023-01-29T21:16:41.435Z,16.75
2023-01-29T21:19:09.132Z,18.10
2023-01-29T21:21:35.983Z,18.02
2023-01-29T21:24:02.815Z,17.42
2023-01-29T21:26:32.777Z,18.63
2023-01-29T21:28:59.573Z,17.33
2023-01-29T21:31:26.525Z,18.33
2023-01-29T21:33:53.335Z,18.90
2023-01-29T21:36:20.183Z,18.73
2023-01-29T21:38:46.956Z,19.30
2023-01-29T21:41:13.771Z,19.55
2023-01-29T21:43:40.618Z,21.25
2023-01-29T21:46:15.112Z,20.73
2023-01-29T21:48:42.003Z,20.10
2023-01-29T21:51:09.012Z,20.85
2023-01-29T21:53:36.787Z,23.27
2023-01-29T21:56:05.339Z,22.25
2023-01-29T21:58:32.706Z,22.25
2023-01-29T22:01:36.128Z,22.85
2023-01-29T22:03:49.372Z,21.23
2023-01-29T22:06:16.368Z,28.20
2023-01-29T22:08:43.194Z,22.25
2023-01-29T22:11:10.395Z,21.98
2023-01-29T22:13:37.372Z,24.52
2023-01-29T22:16:05.997Z,22.27
2023-01-29T22:18:33.053Z,22.52
2023-01-29T22:21:02.592Z,24.88
2023-01-29T22:23:30.841Z,25.42
2023-01-29T22:26:09.462Z,25.55
2023-01-29T22:28:36.269Z,24.67
2023-01-29T22:31:04.905Z,25.60
2023-01-29T22:33:33.247Z,24.67
2023-01-29T22:36:00.590Z,25.73
2023-01-29T22:38:27.366Z,24.77
2023-01-29T22:40:55.278Z,25.60
2023-01-29T22:43:23.035Z,25.77
2023-01-29T22:45:49.787Z,25.10
2023-01-29T22:48:16.527Z,24.92
2023-01-29T22:50:52.852Z,23.85
2023-01-29T22:53:19.764Z,26.58
2023-01-29T22:55:55.859Z,26.48
2023-01-29T22:58:22.664Z,25.60
2023-01-29T23:00:52.495Z,27.23
2023-01-29T23:03:19.299Z,26.67
2023-01-29T23:05:46.135Z,26.95
2023-01-29T23:08:12.895Z,24.52
2023-01-29T23:10:39.667Z,24.88
2023-01-29T23:13:06.498Z,26.35
2023-01-29T23:15:33.297Z,26.65
2023-01-29T23:18:00.102Z,26.55
2023-01-29T23:20:26.893Z,26.15
2023-01-29T23:22:53.675Z,27.55
2023-01-29T23:25:20.459Z,27.05
2023-01-29T23:27:47.247Z,28.35
2023-01-29T23:30:14.156Z,28.15
2023-01-29T23:32:41.140Z,29.52
2023-01-29T23:35:08.344Z,29.77
2023-01-29T23:37:35.113Z,28.08
2023-01-29T23:40:01.919Z,30.13
2023-01-29T23:42:28.749Z,30.30
2023-01-29T23:44:55.518Z,28.75
2023-01-29T23:47:22.295Z,31.55
2023-01-29T23:49:49.099Z,28.17
2023-01-29T23:52:15.840Z,29.67
2023-01-29T23:54:42.657Z,29.02
2023-01-29T23:57:09.541Z,28.10
2023-01-29T23:59:36.390Z,28.75
